Thursday, January 18, 2018, 8:56 PM EST
Back to Local

KMRB, Martinsburg Eastern Wv Reg

Location: Martinsburg, WV, United States Lat: 39.4
Local Time: 8:56 PM EST ( 1:56 GMT) Lon: -77.983
Time Zone: US/Eastern Elev: 557 ft

Show me the last for .
Show Decoded

2018-01-18 19:53 METAR KMRB 190053Z 18003KT 10SM CLR M02/M14 A3008 RMK AO2 SLP193 T10171144 =
2018-01-18 18:53 METAR KMRB 182353Z 29008KT 10SM CLR 02/M16 A3006 RMK AO2 SLP186 T00171156 10056
                 20000 51015 =
2018-01-18 17:53 METAR KMRB 182253Z 31009KT 10SM CLR 03/M16 A3005 RMK AO2 SLP183 T00281161 =
2018-01-18 16:53 METAR KMRB 182153Z 28007KT 10SM CLR 04/M16 A3003 RMK AO2 SLP177 T00391161 =
2018-01-18 15:53 METAR KMRB 182053Z 30011KT 10SM CLR 06/M17 A3002 RMK AO2 SLP171 T00561167 56018
                 =
2018-01-18 14:53 METAR KMRB 181953Z 26009KT 10SM CLR 05/M15 A3002 RMK AO2 SLP173 T00501150 =
2018-01-18 13:53 METAR KMRB 181853Z 26013KT 10SM CLR 05/M15 A3005 RMK AO2 SLP182 T00501150 =
2018-01-18 12:53 METAR KMRB 181753Z 28011KT 10SM CLR 03/M15 A3007 RMK AO2 SLP190 T00281150 10028
                 21089 58032 =
2018-01-18 11:53 METAR KMRB 181653Z 25011KT 220V280 10SM CLR 02/M16 A3011 RMK AO2 SLP204
                 T00221156 =
2018-01-18 10:53 METAR KMRB 181553Z 25014G17KT 10SM CLR 00/M15 A3015 RMK AO2 SLP215 T00001150 =
2018-01-18 09:53 METAR KMRB 181453Z 18004KT 10SM CLR M03/M15 A3017 RMK AO2 SLP223 T10281150 51000
                 =
2018-01-18 08:53 METAR KMRB 181353Z 19004KT 10SM CLR M04/M15 A3017 RMK AO2 SLP225 T10441150 =
2018-01-18 07:53 METAR KMRB 181253Z 22003KT 10SM CLR M09/M16 A3017 RMK AO2 SLP226 T10891156 =
2018-01-18 06:53 METAR KMRB 181153Z VRB06KT 10SM CLR M07/M16 A3017 RMK AO2 SLP224 T10671156 11067
                 21111 55007 =
2018-01-18 05:53 METAR KMRB 181053Z AUTO 00000KT 10SM CLR M09/M16 A3016 RMK AO2 SLP222 T10891156
                 =
2018-01-18 04:53 METAR KMRB 180953Z AUTO 27006KT 10SM CLR M09/M16 A3016 RMK AO2 SLP222 T10941156
                 =
2018-01-18 03:53 METAR KMRB 180853Z AUTO 30005KT 10SM CLR M08/M16 A3019 RMK AO2 SLP230 T10831156
                 58026 =
2018-01-18 02:53 METAR KMRB 180753Z AUTO 29008KT 10SM CLR M09/M15 A3022 RMK AO2 SLP242 T10891150
                 =
2018-01-18 01:53 METAR KMRB 180653Z AUTO VRB04KT 10SM CLR M11/M16 A3024 RMK AO2 SLP250 T11061156
                 =
2018-01-18 00:53 METAR KMRB 180553Z AUTO 19003KT 10SM CLR M11/M15 A3026 RMK AO2 SLP259 T11061150
                 11072 21106 58019 =
2018-01-17 23:53 METAR KMRB 180453Z AUTO 27005KT 10SM CLR M09/M15 A3029 RMK AO2 SLP265 T10891150
                 410111100 =
2018-01-17 22:53 METAR KMRB 180353Z AUTO 29008KT 10SM CLR M09/M16 A3030 RMK AO2 SLP272 T10891156
                 =
2018-01-17 21:53 METAR KMRB 180253Z 00000KT 10SM CLR M09/M16 A3032 RMK AO2 SLP277 T10941161 58002
                 =

Support USWX by starting your Amazon purchase here.